Lexington, Missouri
Current Conditions -  °F | °C
As of 10:35 PM on Wednesday 26 Nov 2014 (Local Time) from KGPH Reporting Station
Overcast Overcast  
Wind Chill: 22°   Ceiling: 1900
Heat Index: 32°   Visibility: 10mi
Dew Point: 25°   Wind: 14mph
Humidity: 75%   Direction: 310°NW
Pressure: 30.36"   Gusts: 22mph
Location:  39.18°N, 93.88°W
Report Text: KGPH 270435Z AUTO 31012G19KT 10SM OVC019 00/M04 A3036 RMK AO2
Loading
Personal Weather Stations






























Interactive Weather Map New forecast layout! Learn more

10-Day Weather Forecast

Advertisements
Track Severe Weather on mobile